Invesco Field (Denver), Colorado
Current Conditions -  °F | °C
As of 9:45 PM on Wednesday 22 Oct 2014 (Local Time) from KBJC Reporting Station
Scattered Clouds Scattered Clouds  
Wind Chill: 55°   Ceiling: Unl
Heat Index: 55°   Visibility: 30mi
Dew Point: 36°   Wind: 9mph
Humidity: 47%   Direction: 260°W
Pressure: 30.16"   Gusts: NA
Location:  39.74401°N, 105.0253°W
Report Text: KBJC 230345Z 26008KT 30SM SCT100 13/02 A3016
Loading
Personal Weather Stations






























Interactive Weather Map
Tropical Storm Tracking
New forecast layout! Learn more

10-Day Weather Forecast

Advertisements
Track Severe Weather on mobile